Time;durP1;ratioP1;P1;durP2;ratioP2;P2;SDS_P1;SDS_P2;PMS_P1;PMS_P2;Temp;Humidity;BMP_temperature;BMP_pressure;BME280_temperature;BME280_humidity;BME280_pressure;Samples;Min_cycle;Max_cycle;Signal;HPM_P1;HPM_P2
2022/08/04 00:00:15;;;;;;;4.70;2.38;;;24.50;61.90;;;;;;5072741;28;20055;-73
2022/08/04 00:02:48;;;;;;;4.05;2.08;;;24.50;62.00;;;;;;5068098;28;20115;-73
2022/08/04 00:05:30;;;;;;;4.40;2.08;;;24.50;62.00;;;;;;5071741;28;20060;-73
2022/08/04 00:08:03;;;;;;;3.33;1.90;;;24.50;61.90;;;;;;5071644;28;20417;-73
2022/08/04 00:10:30;;;;;;;3.28;1.80;;;24.50;62.10;;;;;;5071442;28;20136;-74
2022/08/04 00:12:57;;;;;;;3.10;2.00;;;25.20;65.90;;;;;;5071280;28;20053;-73
2022/08/04 00:15:23;;;;;;;5.93;2.40;;;24.50;62.10;;;;;;5071533;28;20477;-73
2022/08/04 00:17:55;;;;;;;3.47;2.05;;;24.40;62.00;;;;;;5069343;28;20056;-73
2022/08/04 00:20:23;;;;;;;3.40;2.10;;;24.40;62.00;;;;;;5050944;28;20473;-73
2022/08/04 00:22:49;;;;;;;5.93;2.47;;;24.60;66.40;;;;;;5051245;28;20049;-73
2022/08/04 00:25:16;;;;;;;5.28;2.30;;;24.40;62.00;;;;;;5051362;28;20069;-74
2022/08/04 00:27:43;;;;;;;3.60;2.03;;;24.40;62.00;;;;;;5051287;28;20052;-73
2022/08/04 00:30:10;;;;;;;3.80;2.30;;;24.60;66.40;;;;;;5050942;28;20059;-73
2022/08/04 00:32:38;;;;;;;4.22;2.42;;;24.40;62.00;;;;;;5058247;28;20044;-74
2022/08/04 00:35:05;;;;;;;4.40;2.35;;;24.40;62.00;;;;;;5071229;28;20060;-75
2022/08/04 00:37:33;;;;;;;4.53;2.08;;;24.40;62.00;;;;;;5071023;28;20588;-73
2022/08/04 00:40:00;;;;;;;4.18;2.05;;;24.60;66.00;;;;;;5071061;28;20045;-73
2022/08/04 00:42:34;;;;;;;4.93;2.30;;;24.40;62.60;;;;;;5052143;28;20053;-73
2022/08/04 00:45:14;;;;;;;5.07;2.45;;;24.40;62.00;;;;;;5050622;28;20136;-74
2022/08/04 00:47:50;;;;;;;4.35;2.10;;;24.60;66.10;;;;;;5050908;28;20057;-73
2022/08/04 00:50:19;;;;;;;3.95;2.28;;;24.30;62.10;;;;;;5068098;28;20139;-74
2022/08/04 00:53:06;;;;;;;3.40;2.00;;;24.30;62.20;;;;;;5070617;28;20131;-73
2022/08/04 00:55:53;;;;;;;3.97;2.20;;;24.30;66.20;;;;;;5070831;28;20127;-73
2022/08/04 00:58:34;;;;;;;4.38;2.33;;;24.00;65.90;;;;;;5071563;28;20485;-73
2022/08/04 01:01:02;;;;;;;3.30;2.25;;;24.30;62.20;;;;;;5070103;28;20052;-75
2022/08/04 01:03:51;;;;;;;5.15;2.55;;;24.30;64.90;;;;;;5062585;28;20068;-74
2022/08/04 01:06:31;;;;;;;3.33;2.10;;;24.30;62.20;;;;;;5030705;28;20473;-73
2022/08/04 01:09:12;;;;;;;4.97;2.63;;;24.30;62.40;;;;;;5030813;28;20474;-74
2022/08/04 01:11:53;;;;;;;5.28;2.20;;;24.20;65.70;;;;;;5030277;28;20057;-73
2022/08/04 01:14:32;;;;;;;4.53;2.45;;;24.20;62.40;;;;;;5030610;28;20581;-74
2022/08/04 01:17:07;;;;;;;4.18;2.17;;;24.20;62.40;;;;;;5045703;28;20092;-73
2022/08/04 01:19:53;;;;;;;4.95;2.67;;;24.10;67.10;;;;;;5031394;28;20045;-74
2022/08/04 01:22:39;;;;;;;4.75;2.40;;;24.30;62.50;;;;;;5030517;28;20053;-73
2022/08/04 01:25:26;;;;;;;3.58;2.50;;;24.20;62.50;;;;;;5030335;28;20136;-73
2022/08/04 01:28:06;;;;;;;4.75;2.47;;;24.40;66.80;;;;;;5030678;28;20057;-73
2022/08/04 01:30:37;;;;;;;3.22;2.00;;;24.20;62.60;;;;;;5056891;28;20055;-74
2022/08/04 01:33:05;;;;;;;3.35;2.03;;;24.20;62.60;;;;;;5069858;28;20057;-74
2022/08/04 01:35:36;;;;;;;5.97;2.50;;;24.10;65.90;;;;;;5070424;28;20056;-74
2022/08/04 01:38:07;;;;;;;4.13;2.42;;;24.20;62.60;;;;;;5071447;28;20059;-74
2022/08/04 01:40:34;;;;;;;3.80;2.55;;;24.30;66.50;;;;;;5070045;28;20127;-73
2022/08/04 01:43:00;;;;;;;3.28;2.10;;;24.20;62.70;;;;;;5070310;28;20135;-73
2022/08/04 01:45:27;;;;;;;4.00;2.40;;;24.20;62.70;;;;;;5071239;28;20044;-73
2022/08/04 01:47:56;;;;;;;5.28;2.30;;;23.70;66.50;;;;;;5050991;28;20132;-74
2022/08/04 01:50:23;;;;;;;3.45;2.20;;;24.10;62.60;;;;;;5051271;28;20140;-73
2022/08/04 01:52:53;;;;;;;3.40;2.10;;;24.40;66.40;;;;;;5054227;28;20053;-73
2022/08/04 01:55:20;;;;;;;4.53;2.28;;;24.10;62.60;;;;;;5054217;28;20143;-73
2022/08/04 01:57:47;;;;;;;3.65;2.28;;;24.30;66.40;;;;;;5054023;28;20148;-73
2022/08/04 02:00:15;;;;;;;4.00;2.35;;;24.80;66.00;;;;;;5053431;28;20148;-73
2022/08/04 02:02:42;;;;;;;4.25;2.50;;;24.10;65.90;;;;;;5035084;28;20045;-73
2022/08/04 02:05:11;;;;;;;5.05;2.58;;;24.10;62.70;;;;;;5034004;28;20057;-74
2022/08/04 02:07:45;;;;;;;3.03;2.30;;;24.10;62.70;;;;;;5033532;28;20057;-73
2022/08/04 02:10:18;;;;;;;5.63;2.35;;;24.00;62.00;;;;;;5033816;28;20498;-73
2022/08/04 02:12:52;;;;;;;4.15;2.20;;;24.00;66.30;;;;;;5033901;28;20053;-73
2022/08/04 02:15:23;;;;;;;;;;;24.10;62.60;;;;;;5049667;28;20155;-75
2022/08/04 02:17:55;;;;;;;2.97;2.05;;;24.00;62.40;;;;;;5074783;28;19998;-73
2022/08/04 02:20:25;;;;;;;4.45;2.38;;;24.00;62.70;;;;;;5073551;28;20425;-73
2022/08/04 02:22:54;;;;;;;5.43;2.60;;;24.00;62.60;;;;;;5073528;28;20059;-74
2022/08/04 02:25:24;;;;;;;4.63;2.20;;;24.00;62.60;;;;;;5073729;28;20161;-73
2022/08/04 02:27:56;;;;;;;4.95;2.90;;;24.00;62.60;;;;;;5073091;28;20824;-73
2022/08/04 02:30:23;;;;;;;3.70;2.25;;;23.90;66.60;;;;;;5059910;28;20137;-73
2022/08/04 02:32:49;;;;;;;2.53;2.25;;;24.00;62.60;;;;;;5048973;28;20057;-73
2022/08/04 02:35:23;;;;;;;3.53;2.40;;;24.00;66.60;;;;;;5053538;28;20135;-73
2022/08/04 02:37:57;;;;;;;3.58;2.38;;;24.00;62.60;;;;;;5053280;28;20057;-73
2022/08/04 02:40:23;;;;;;;3.58;2.22;;;24.00;62.60;;;;;;5054134;28;20741;-73
2022/08/04 02:42:50;;;;;;;3.85;2.60;;;24.00;62.50;;;;;;5052810;28;20129;-74
2022/08/04 02:45:18;;;;;;;3.60;2.13;;;24.00;62.50;;;;;;5054258;28;20134;-73
2022/08/04 02:47:45;;;;;;;2.97;2.40;;;24.00;62.50;;;;;;5053248;28;20052;-73
2022/08/04 02:50:11;;;;;;;4.15;2.60;;;24.00;65.70;;;;;;5053945;28;20053;-76
2022/08/04 02:52:38;;;;;;;4.22;2.50;;;24.10;66.70;;;;;;5053242;28;20052;-74
2022/08/04 02:55:07;;;;;;;3.03;2.30;;;24.00;62.50;;;;;;5053078;28;20057;-75
2022/08/04 02:57:34;;;;;;;3.65;2.47;;;23.90;62.40;;;;;;5053760;28;20051;-76
2022/08/04 03:00:06;;;;;;;3.40;2.40;;;23.90;62.50;;;;;;5068119;28;20548;-76
2022/08/04 03:02:38;;;;;;;3.83;2.30;;;23.90;66.80;;;;;;5071969;28;20060;-76
2022/08/04 03:05:09;;;;;;;4.25;2.40;;;24.00;62.60;;;;;;5072986;28;20058;-74
2022/08/04 03:07:57;;;;;;;2.97;2.20;;;23.10;66.50;;;;;;5072655;28;20052;-76
2022/08/04 03:11:00;;;;;;;4.65;2.55;;;23.90;62.40;;;;;;5072623;28;20057;-76
2022/08/04 03:13:56;;;;;;;2.92;2.20;;;23.90;62.40;;;;;;5040047;28;20059;-74
2022/08/04 03:16:53;;;;;;;3.75;2.40;;;23.90;66.40;;;;;;5052786;28;20067;-76
2022/08/04 03:20:07;;;;;;;3.88;2.40;;;23.90;62.40;;;;;;5036385;28;20052;-76
2022/08/04 03:22:53;;;;;;;3.55;2.42;;;23.90;62.40;;;;;;4975695;28;20093;-76
2022/08/04 03:25:29;;;;;;;3.50;2.35;;;23.80;62.50;;;;;;5052145;28;20128;-76
2022/08/04 03:28:45;;;;;;;3.15;2.10;;;23.90;62.60;;;;;;5059786;28;20061;-75
2022/08/04 03:31:47;;;;;;;2.75;2.28;;;23.90;62.40;;;;;;5072350;28;20548;-76
2022/08/04 03:34:24;;;;;;;2.97;2.33;;;23.80;62.40;;;;;;5021531;28;20048;-75
2022/08/04 03:37:23;;;;;;;4.10;2.35;;;23.80;66.30;;;;;;5072288;28;20062;-76
2022/08/04 03:40:05;;;;;;;4.53;2.42;;;23.80;62.40;;;;;;5069816;28;20140;-76
2022/08/04 03:42:44;;;;;;;4.40;2.25;;;23.80;62.60;;;;;;5070385;28;20135;-76
2022/08/04 03:45:46;;;;;;;2.92;2.22;;;23.80;66.10;;;;;;5072060;28;20059;-75
2022/08/04 03:48:35;;;;;;;3.47;2.17;;;23.30;65.70;;;;;;5072045;28;20056;-75
2022/08/04 03:54:26;;;;;;;4.55;2.15;;;23.80;62.50;;;;;;5073167;28;20044;-75
2022/08/04 03:57:03;;;;;;;2.70;2.28;;;23.70;62.50;;;;;;5069293;28;20075;-75
2022/08/04 03:59:43;;;;;;;2.83;2.30;;;24.00;66.60;;;;;;5051877;28;20511;-75
2022/08/04 04:02:37;;;;;;;3.08;2.20;;;23.70;62.50;;;;;;5051526;28;20067;-74
2022/08/04 04:05:41;;;;;;;2.88;2.10;;;23.70;66.30;;;;;;5015336;28;20053;-75
2022/08/04 04:08:30;;;;;;;3.03;2.22;;;23.70;62.40;;;;;;5051499;28;20135;-75
2022/08/04 04:11:30;;;;;;;3.58;2.33;;;23.90;64.70;;;;;;5039568;28;20059;-75
2022/08/04 04:14:06;;;;;;;3.35;2.28;;;23.70;62.50;;;;;;5071524;28;20127;-74
2022/08/04 04:16:38;;;;;;;3.35;2.10;;;23.70;62.50;;;;;;5071778;28;20060;-75
2022/08/04 04:19:27;;;;;;;3.13;2.28;;;23.70;62.50;;;;;;5071633;28;20062;-75
2022/08/04 04:22:05;;;;;;;2.85;2.20;;;23.90;66.80;;;;;;5070897;28;20044;-75
2022/08/04 04:24:39;;;;;;;2.60;2.00;;;23.70;66.70;;;;;;5071319;28;20135;-75
2022/08/04 04:27:09;;;;;;;3.72;2.42;;;23.60;62.40;;;;;;5054724;28;20053;-75
2022/08/04 04:29:52;;;;;;;2.53;2.05;;;23.50;65.60;;;;;;5031339;28;20089;-75
2022/08/04 04:32:23;;;;;;;2.90;2.00;;;23.70;62.30;;;;;;5031231;28;20065;-74
2022/08/04 04:35:10;;;;;;;2.97;2.03;;;23.70;62.40;;;;;;5032369;28;20478;-75
2022/08/04 04:37:50;;;;;;;3.03;2.10;;;23.90;65.30;;;;;;5031249;28;20063;-74
2022/08/04 04:40:24;;;;;;;3.38;2.05;;;24.70;66.40;;;;;;5040958;28;20056;-75
2022/08/04 04:43:00;;;;;;;3.72;2.20;;;23.70;62.40;;;;;;5070940;28;20519;-75
2022/08/04 04:45:30;;;;;;;3.67;2.20;;;23.70;62.30;;;;;;5071181;28;20635;-75
2022/08/04 04:48:00;;;;;;;2.83;2.13;;;23.70;62.40;;;;;;5070453;28;20131;-75
2022/08/04 04:50:36;;;;;;;4.18;2.40;;;23.80;65.50;;;;;;5070832;28;20135;-75
2022/08/04 04:53:07;;;;;;;3.10;2.45;;;23.60;62.30;;;;;;5070866;28;20063;-75
2022/08/04 04:55:35;;;;;;;3.17;2.17;;;23.70;62.40;;;;;;5071198;28;20142;-74
2022/08/04 04:58:02;;;;;;;4.00;2.22;;;23.70;65.70;;;;;;5056551;28;20514;-74
2022/08/04 05:00:34;;;;;;;5.25;2.25;;;23.70;62.40;;;;;;5050517;28;20183;-75
2022/08/04 05:03:27;;;;;;;2.83;2.22;;;23.80;65.40;;;;;;5050745;28;20061;-75
2022/08/04 05:06:08;;;;;;;5.15;2.30;;;23.70;62.20;;;;;;5050954;28;20472;-75
2022/08/04 05:08:53;;;;;;;2.95;2.13;;;22.70;65.10;;;;;;5050831;28;20060;-75
2022/08/04 05:11:42;;;;;;;2.78;2.00;;;23.50;65.80;;;;;;5052843;28;20056;-74
2022/08/04 05:14:11;;;;;;;3.20;2.00;;;23.60;62.30;;;;;;5070904;28;20143;-75
2022/08/04 05:16:40;;;;;;;3.65;2.20;;;23.90;66.00;;;;;;5070550;28;20082;-75
2022/08/04 05:19:12;;;;;;;3.17;2.20;;;23.60;62.40;;;;;;5070896;28;20165;-75
2022/08/04 05:21:44;;;;;;;3.25;2.35;;;23.70;62.40;;;;;;5062426;28;20128;-75
2022/08/04 05:24:13;;;;;;;2.85;2.17;;;23.70;62.40;;;;;;5050590;28;20057;-76
2022/08/04 05:26:41;;;;;;;3.10;2.33;;;23.70;62.40;;;;;;5050424;28;20412;-75
2022/08/04 05:29:11;;;;;;;4.35;2.30;;;23.80;67.30;;;;;;5050539;28;20057;-75
2022/08/04 05:31:39;;;;;;;2.97;2.28;;;23.40;65.90;;;;;;5050076;28;20397;-75
2022/08/04 05:34:08;;;;;;;3.00;2.47;;;23.10;65.80;;;;;;5050512;28;20098;-75
2022/08/04 05:36:37;;;;;;;4.45;2.30;;;23.60;62.30;;;;;;5050140;28;20060;-74
2022/08/04 05:39:04;;;;;;;2.92;2.40;;;23.70;62.20;;;;;;5049732;28;20382;-75
2022/08/04 05:41:33;;;;;;;3.17;2.25;;;23.70;62.20;;;;;;5063447;28;20052;-76
2022/08/04 05:43:59;;;;;;;8.57;2.60;;;23.70;62.20;;;;;;5070819;28;20066;-75
2022/08/04 05:46:26;;;;;;;3.22;2.30;;;23.70;62.20;;;;;;5071475;28;20063;-74
2022/08/04 05:48:53;;;;;;;6.60;2.50;;;23.90;67.10;;;;;;5062140;28;20064;-75
2022/08/04 05:51:20;;;;;;;4.25;2.15;;;23.70;62.20;;;;;;5050784;28;20409;-75
2022/08/04 05:53:46;;;;;;;4.00;2.30;;;23.70;62.20;;;;;;5052012;28;20045;-75
2022/08/04 05:56:14;;;;;;;3.95;2.40;;;23.70;62.30;;;;;;5050027;28;20063;-75
2022/08/04 05:58:42;;;;;;;5.35;2.33;;;23.40;65.60;;;;;;5051126;28;20063;-75
2022/08/04 06:01:10;;;;;;;3.72;2.50;;;23.80;65.50;;;;;;5047411;28;20045;-75
2022/08/04 06:03:37;;;;;;;2.20;2.00;;;23.70;62.30;;;;;;5050461;28;20135;-75
2022/08/04 06:06:03;;;;;;;3.55;2.42;;;23.70;62.40;;;;;;5050324;28;20057;-75
2022/08/04 06:08:30;;;;;;;3.10;2.58;;;23.70;62.40;;;;;;5050045;28;20124;-75
2022/08/04 06:10:58;;;;;;;3.20;2.60;;;24.40;65.00;;;;;;5051752;28;20052;-72
2022/08/04 06:13:28;;;;;;;2.75;2.15;;;23.80;62.40;;;;;;5049937;28;20141;-73
2022/08/04 06:15:57;;;;;;;4.45;2.00;;;23.90;66.40;;;;;;5030082;28;20140;-73
2022/08/04 06:18:23;;;;;;;2.83;2.22;;;24.90;66.40;;;;;;5030752;28;20140;-74
2022/08/04 06:20:50;;;;;;;2.47;2.20;;;23.80;64.00;;;;;;5029810;28;20446;-72
2022/08/04 06:23:17;;;;;;;2.53;2.03;;;24.00;61.90;;;;;;5031017;28;20077;-76
2022/08/04 06:25:46;;;;;;;5.10;2.22;;;24.10;61.90;;;;;;5043420;28;20052;-74
2022/08/04 06:28:13;;;;;;;2.50;2.00;;;24.20;61.70;;;;;;5069987;28;20058;-74
2022/08/04 06:30:40;;;;;;;3.88;2.00;;;24.30;61.60;;;;;;5051777;28;20055;-75
2022/08/04 06:33:23;;;;;;;3.08;2.17;;;24.30;61.50;;;;;;5049471;28;20103;-74
2022/08/04 06:35:50;;;;;;;3.92;2.10;;;24.40;61.40;;;;;;5031155;28;20053;-75
2022/08/04 06:38:17;;;;;;;3.05;2.20;;;24.50;61.30;;;;;;5031341;28;20143;-75
2022/08/04 06:40:43;;;;;;;3.33;2.03;;;24.00;62.90;;;;;;5060613;28;20055;-73
2022/08/04 06:43:10;;;;;;;3.58;2.30;;;23.60;64.80;;;;;;5061075;28;20067;-72
2022/08/04 06:45:37;;;;;;;2.90;2.10;;;24.70;60.80;;;;;;5033176;28;20145;-74
2022/08/04 06:48:05;;;;;;;3.15;2.05;;;24.70;64.10;;;;;;5036577;28;20049;-72
2022/08/04 06:50:34;;;;;;;2.33;1.90;;;24.90;60.50;;;;;;5053666;28;20052;-72
2022/08/04 06:53:00;;;;;;;5.13;2.00;;;25.90;65.20;;;;;;5051217;28;20057;-73
2022/08/04 06:55:27;;;;;;;2.72;1.90;;;26.20;64.80;;;;;;5055067;28;20048;-74
2022/08/04 06:57:54;;;;;;;3.50;2.20;;;25.10;60.20;;;;;;5053828;28;20055;-73
2022/08/04 07:00:22;;;;;;;2.85;2.00;;;25.10;63.80;;;;;;5052572;28;20067;-75
2022/08/04 07:02:50;;;;;;;2.97;2.08;;;25.20;60.00;;;;;;5049653;28;20147;-77
2022/08/04 07:05:17;;;;;;;3.20;2.15;;;25.40;65.10;;;;;;5043090;28;20133;-74
2022/08/04 07:07:45;;;;;;;3.88;2.20;;;25.30;59.90;;;;;;5034851;28;20060;-74
2022/08/04 07:10:12;;;;;;;4.25;2.10;;;26.00;64.90;;;;;;5033452;28;20081;-74
2022/08/04 07:12:39;;;;;;;5.15;2.03;;;25.40;59.80;;;;;;5039682;28;20174;-75
2022/08/04 07:15:07;;;;;;;4.05;2.00;;;25.40;59.80;;;;;;5074479;28;20051;-74
2022/08/04 07:17:34;;;;;;;3.25;2.00;;;25.50;59.80;;;;;;5073279;28;20381;-75
2022/08/04 07:20:00;;;;;;;3.78;2.00;;;25.50;59.80;;;;;;5073286;28;20063;-74
2022/08/04 07:22:27;;;;;;;4.05;2.22;;;25.70;59.80;;;;;;5073033;28;20147;-75
2022/08/04 07:24:56;;;;;;;5.65;2.00;;;25.60;59.80;;;;;;5073110;28;20143;-74
2022/08/04 07:27:23;;;;;;;3.65;2.10;;;25.60;59.80;;;;;;5062008;28;20420;-72
2022/08/04 07:29:49;;;;;;;3.80;2.08;;;25.60;63.70;;;;;;5053299;28;20071;-72
2022/08/04 07:32:16;;;;;;;5.50;2.00;;;25.70;59.70;;;;;;5052328;28;20140;-73
2022/08/04 07:34:43;;;;;;;4.15;2.30;;;25.70;59.60;;;;;;5055188;28;20060;-73
2022/08/04 07:37:10;;;;;;;3.97;2.13;;;25.70;63.40;;;;;;5054752;28;20052;-72
2022/08/04 07:39:36;;;;;;;3.30;2.00;;;25.80;59.50;;;;;;5052361;28;20060;-74
2022/08/04 07:42:05;;;;;;;3.03;2.20;;;25.80;59.50;;;;;;5051368;28;20049;-72
2022/08/04 07:44:32;;;;;;;2.95;2.03;;;25.80;59.40;;;;;;5053646;28;20144;-73
2022/08/04 07:46:58;;;;;;;3.47;2.00;;;25.90;59.40;;;;;;5052487;28;20504;-73
2022/08/04 07:49:26;;;;;;;4.15;2.00;;;25.90;59.40;;;;;;5051659;28;20055;-72
2022/08/04 07:51:53;;;;;;;3.45;1.80;;;25.90;59.30;;;;;;5051337;28;20685;-73
2022/08/04 07:54:20;;;;;;;4.10;2.13;;;25.90;59.20;;;;;;5051777;28;20084;-73
2022/08/04 07:56:47;;;;;;;3.53;1.80;;;25.90;59.10;;;;;;5035313;28;20053;-72
2022/08/04 07:59:16;;;;;;;4.88;2.08;;;26.00;59.20;;;;;;5052331;28;20061;-73
2022/08/04 08:01:42;;;;;;;2.65;1.92;;;25.90;62.80;;;;;;5051349;28;20135;-74
2022/08/04 08:04:10;;;;;;;4.07;2.03;;;26.00;59.10;;;;;;5053083;28;20463;-73
2022/08/04 08:06:37;;;;;;;3.55;1.90;;;26.00;59.10;;;;;;5052073;28;20135;-72
2022/08/04 08:09:07;;;;;;;5.10;2.10;;;26.00;59.00;;;;;;5053034;28;20048;-72
2022/08/04 08:11:34;;;;;;;3.63;2.20;;;26.00;59.00;;;;;;5051330;28;20438;-73
2022/08/04 08:14:01;;;;;;;4.75;2.00;;;25.90;62.70;;;;;;5066003;28;20468;-72
2022/08/04 08:16:29;;;;;;;4.47;1.92;;;26.10;59.00;;;;;;5071770;28;20087;-75
2022/08/04 08:18:56;;;;;;;5.00;1.98;;;26.10;63.00;;;;;;5071528;28;20056;-75
2022/08/04 08:21:23;;;;;;;4.65;2.40;;;26.10;58.90;;;;;;5055456;28;20049;-75
2022/08/04 08:23:50;;;;;;;4.32;2.20;;;26.10;58.90;;;;;;5052200;28;20055;-75
2022/08/04 08:26:17;;;;;;;4.50;2.30;;;26.10;58.90;;;;;;5051338;28;20063;-75
2022/08/04 08:28:44;;;;;;;5.03;2.25;;;26.20;58.90;;;;;;5065605;28;20052;-74
2022/08/04 08:31:10;;;;;;;6.25;2.28;;;26.10;58.70;;;;;;5070727;28;20139;-75
2022/08/04 08:33:38;;;;;;;6.63;2.35;;;27.20;62.80;;;;;;5069762;28;20052;-75
2022/08/04 08:36:09;;;;;;;6.80;2.42;;;25.90;62.10;;;;;;5051029;28;20049;-76
2022/08/04 08:38:43;;;;;;;5.03;2.47;;;26.10;58.80;;;;;;5045681;28;20611;-76
2022/08/04 08:41:25;;;;;;;4.63;2.30;;;26.20;60.80;;;;;;5050393;28;20132;-76
2022/08/04 08:44:25;;;;;;;5.47;2.90;;;25.00;62.80;;;;;;5052901;28;20468;-76
2022/08/04 08:46:59;;;;;;;5.95;2.55;;;26.20;59.00;;;;;;5050504;28;20057;-75
2022/08/04 08:49:59;;;;;;;6.65;2.60;;;26.20;58.80;;;;;;5051381;28;20463;-76
2022/08/04 08:53:02;;;;;;;5.95;2.50;;;26.30;63.80;;;;;;5044514;28;20080;-76
2022/08/04 08:55:37;;;;;;;7.25;2.88;;;26.10;62.50;;;;;;5045331;28;20080;-74
2022/08/04 08:58:37;;;;;;;6.40;2.80;;;26.20;63.10;;;;;;5051983;28;20053;-76
2022/08/04 09:01:10;;;;;;;6.07;3.03;;;26.20;58.90;;;;;;5036648;28;20076;-76
2022/08/04 09:03:46;;;;;;;8.35;2.78;;;26.20;58.90;;;;;;5050114;28;20408;-76
2022/08/04 09:06:46;;;;;;;8.90;2.90;;;26.20;58.90;;;;;;5050472;28;20056;-76
2022/08/04 09:09:40;;;;;;;9.35;3.13;;;26.20;58.90;;;;;;4954204;28;20062;-75
2022/08/04 09:12:09;;;;;;;8.40;3.10;;;26.20;58.90;;;;;;5047748;28;20057;-76
2022/08/04 09:14:41;;;;;;;7.40;3.03;;;26.20;58.80;;;;;;5062899;28;20063;-76
2022/08/04 09:17:13;;;;;;;7.25;2.80;;;26.20;58.80;;;;;;5050920;28;20063;-75
2022/08/04 09:19:44;;;;;;;11.13;3.22;;;26.20;58.80;;;;;;5050591;28;20065;-76
2022/08/04 09:22:13;;;;;;;6.95;3.22;;;26.00;62.90;;;;;;5050587;28;20050;-76
2022/08/04 09:24:48;;;;;;;6.85;2.80;;;26.20;58.90;;;;;;5059471;28;20158;-75
2022/08/04 09:27:19;;;;;;;7.55;3.15;;;26.20;58.90;;;;;;5050433;28;20053;-73
2022/08/04 09:29:48;;;;;;;6.05;2.75;;;26.10;58.80;;;;;;5047960;28;20053;-74
2022/08/04 09:32:21;;;;;;;9.68;3.30;;;26.10;58.80;;;;;;5050976;28;20045;-73
2022/08/04 09:34:51;;;;;;;5.55;2.60;;;26.10;58.90;;;;;;5045591;28;20414;-74
2022/08/04 09:37:24;;;;;;;6.75;3.13;;;26.10;58.90;;;;;;5049114;28;20063;-73
2022/08/04 09:39:56;;;;;;;9.98;2.80;;;26.10;62.40;;;;;;5046789;28;20064;-73
2022/08/04 09:42:27;;;;;;;7.80;2.88;;;26.20;59.00;;;;;;5030412;28;20530;-73
2022/08/04 09:45:00;;;;;;;6.60;3.13;;;26.20;59.00;;;;;;5031256;28;20129;-74
2022/08/04 09:47:31;;;;;;;7.40;2.55;;;26.20;59.00;;;;;;5030437;28;20087;-73
2022/08/04 09:50:01;;;;;;;6.35;2.60;;;26.20;62.40;;;;;;5031455;28;20058;-74
2022/08/04 09:52:32;;;;;;;6.07;2.85;;;26.20;59.10;;;;;;5056748;28;20123;-72
2022/08/04 09:55:04;;;;;;;8.48;2.70;;;26.20;59.00;;;;;;5071249;28;20049;-73
2022/08/04 09:57:39;;;;;;;7.38;3.03;;;26.30;59.10;;;;;;5071680;28;20408;-73
2022/08/04 10:00:10;;;;;;;6.50;2.63;;;26.20;58.90;;;;;;5070076;28;20167;-73
2022/08/04 10:02:38;;;;;;;8.18;3.05;;;26.20;59.00;;;;;;5071587;28;20135;-73
2022/08/04 10:05:07;;;;;;;6.18;2.60;;;26.20;58.90;;;;;;5070180;28;20052;-74
2022/08/04 10:07:45;;;;;;;4.88;2.28;;;26.00;62.80;;;;;;5068673;28;20049;-73
2022/08/04 10:10:28;;;;;;;4.45;2.40;;;26.20;58.90;;;;;;5030975;28;20128;-73
2022/08/04 10:13:18;;;;;;;4.22;2.20;;;26.20;58.90;;;;;;5032629;28;20060;-73
2022/08/04 10:15:49;;;;;;;3.38;2.20;;;26.20;58.90;;;;;;5034109;28;20546;-75
2022/08/04 10:18:23;;;;;;;3.60;2.30;;;26.20;58.90;;;;;;5034032;28;20068;-75
2022/08/04 10:20:55;;;;;;;4.78;2.40;;;25.80;60.50;;;;;;5033747;28;20140;-73
2022/08/04 10:23:27;;;;;;;3.53;2.40;;;26.20;58.90;;;;;;5047859;28;20048;-73
2022/08/04 10:26:03;;;;;;;4.13;2.20;;;26.20;58.90;;;;;;5063803;28;20572;-71
2022/08/04 10:28:30;;;;;;;3.47;2.30;;;26.20;58.90;;;;;;5053356;28;20053;-75
2022/08/04 10:30:59;;;;;;;4.00;2.10;;;26.40;61.50;;;;;;5053001;28;20132;-75
2022/08/04 10:33:28;;;;;;;4.28;2.20;;;26.20;58.90;;;;;;5054396;28;20044;-75
2022/08/04 10:36:00;;;;;;;3.85;1.90;;;26.20;62.40;;;;;;5054089;28;20135;-75
2022/08/04 10:38:29;;;;;;;3.92;2.13;;;26.20;62.30;;;;;;5056030;28;20048;-73
2022/08/04 10:41:00;;;;;;;2.92;1.98;;;26.30;61.40;;;;;;5053187;28;20079;-73
2022/08/04 10:43:37;;;;;;;2.95;1.98;;;26.20;58.90;;;;;;5054245;28;20049;-76
2022/08/04 10:46:06;;;;;;;6.80;2.20;;;26.20;58.90;;;;;;5053169;28;20082;-73
2022/08/04 10:48:37;;;;;;;3.53;2.13;;;26.20;59.00;;;;;;5053509;28;20057;-73
2022/08/04 10:51:10;;;;;;;4.45;2.20;;;26.20;59.00;;;;;;5052960;28;20060;-74
2022/08/04 10:53:37;;;;;;;3.80;2.20;;;26.20;59.00;;;;;;5053394;28;20037;-72
2022/08/04 10:56:10;;;;;;;3.90;2.42;;;26.20;59.60;;;;;;5053894;28;20071;-74
2022/08/04 10:58:40;;;;;;;4.57;2.10;;;26.30;59.00;;;;;;5054481;28;20116;-73
2022/08/04 11:01:20;;;;;;;2.58;1.60;;;26.20;59.00;;;;;;5056285;28;20487;-73
2022/08/04 11:03:49;;;;;;;3.15;2.00;;;26.20;59.00;;;;;;5052357;28;20072;-73
2022/08/04 11:06:16;;;;;;;3.08;2.10;;;26.30;59.00;;;;;;5049489;28;20049;-73
2022/08/04 11:08:45;;;;;;;3.63;1.90;;;26.30;59.00;;;;;;5047249;28;20065;-72
2022/08/04 11:11:15;;;;;;;4.15;2.40;;;27.10;62.90;;;;;;5053690;28;20053;-72
2022/08/04 11:13:45;;;;;;;3.67;2.22;;;26.30;59.60;;;;;;5055839;28;20066;-72
2022/08/04 11:16:15;;;;;;;2.90;1.95;;;26.30;59.00;;;;;;5050858;28;20060;-72
2022/08/04 11:18:46;;;;;;;6.30;2.00;;;26.30;59.00;;;;;;5050113;28;20397;-72
2022/08/04 11:21:18;;;;;;;3.83;1.80;;;26.30;58.90;;;;;;5052449;28;20505;-73
2022/08/04 11:23:46;;;;;;;5.13;2.00;;;26.30;59.10;;;;;;5051832;28;20667;-72
2022/08/04 11:26:17;;;;;;;4.05;1.92;;;26.30;58.90;;;;;;5050716;28;20052;-75
2022/08/04 11:28:48;;;;;;;4.80;2.25;;;26.20;62.90;;;;;;5049859;28;20565;-75
2022/08/04 11:31:19;;;;;;;4.20;1.90;;;26.30;58.90;;;;;;5052187;28;20095;-72
2022/08/04 11:33:52;;;;;;;3.10;2.05;;;26.40;61.00;;;;;;5053319;28;20056;-72
2022/08/04 11:36:25;;;;;;;3.50;1.85;;;26.40;59.10;;;;;;5052075;28;20490;-72
2022/08/04 11:38:56;;;;;;;2.42;1.80;;;26.40;59.10;;;;;;5052042;28;20053;-72
2022/08/04 11:41:30;;;;;;;2.72;1.95;;;26.40;59.00;;;;;;5051902;28;20475;-74
2022/08/04 11:43:57;;;;;;;3.83;1.90;;;26.50;62.30;;;;;;5051904;28;20048;-73
2022/08/04 11:46:26;;;;;;;4.40;2.20;;;26.40;59.00;;;;;;5053313;28;20429;-72
2022/08/04 11:48:57;;;;;;;3.35;2.00;;;26.40;58.90;;;;;;5051927;28;20114;-72
2022/08/04 11:51:25;;;;;;;3.03;1.90;;;26.40;63.50;;;;;;5052909;28;20136;-72
2022/08/04 11:53:52;;;;;;;2.80;1.75;;;26.40;59.00;;;;;;5051547;28;20064;-74
2022/08/04 11:56:18;;;;;;;3.22;2.00;;;26.40;58.90;;;;;;5052376;28;20055;-72
2022/08/04 11:58:47;;;;;;;3.63;2.00;;;26.40;63.10;;;;;;5051545;28;20053;-72
2022/08/04 12:01:18;;;;;;;3.50;1.90;;;25.30;62.20;;;;;;5051538;28;20088;-71
2022/08/04 12:03:49;;;;;;;5.28;2.17;;;26.40;59.00;;;;;;5049353;28;20045;-72
2022/08/04 12:06:19;;;;;;;3.25;1.90;;;26.40;59.20;;;;;;5052163;28;20084;-73
2022/08/04 12:09:03;;;;;;;3.17;1.88;;;26.60;62.30;;;;;;5049225;28;20679;-72
2022/08/04 12:11:38;;;;;;;6.00;2.00;;;26.40;59.20;;;;;;5049414;28;20053;-74
2022/08/04 12:14:13;;;;;;;4.60;2.20;;;26.40;59.20;;;;;;5050577;28;20132;-75
2022/08/04 12:16:42;;;;;;;4.70;1.80;;;26.50;59.30;;;;;;5052271;28;20413;-75
2022/08/04 12:19:17;;;;;;;3.38;1.80;;;26.50;59.20;;;;;;5049465;28;20056;-75
2022/08/04 12:21:47;;;;;;;4.18;1.85;;;26.40;59.10;;;;;;5048394;28;20048;-75
2022/08/04 12:24:15;;;;;;;3.03;1.95;;;26.40;62.90;;;;;;5051927;28;20128;-75
2022/08/04 12:26:44;;;;;;;5.38;2.22;;;26.50;59.20;;;;;;5048403;28;20057;-75
2022/08/04 12:29:12;;;;;;;2.92;1.80;;;26.50;59.20;;;;;;5052119;28;20051;-75
2022/08/04 12:31:41;;;;;;;2.70;1.77;;;26.50;59.20;;;;;;5051884;28;20041;-75
2022/08/04 12:34:13;;;;;;;3.88;1.70;;;26.50;63.20;;;;;;5051950;28;20056;-75
2022/08/04 12:36:43;;;;;;;2.75;1.80;;;26.30;63.10;;;;;;5052348;28;20483;-74
2022/08/04 12:39:11;;;;;;;6.13;2.10;;;26.40;59.20;;;;;;5049547;28;20045;-74
2022/08/04 12:41:40;;;;;;;4.20;2.08;;;26.40;59.10;;;;;;5050604;28;20461;-74
2022/08/04 12:44:09;;;;;;;3.97;1.90;;;26.40;59.20;;;;;;5050075;28;20045;-75
2022/08/04 12:46:37;;;;;;;3.72;2.00;;;26.40;59.20;;;;;;5051011;28;20087;-75
2022/08/04 12:49:04;;;;;;;4.25;1.73;;;26.40;59.20;;;;;;5048532;28;20509;-75
2022/08/04 12:51:37;;;;;;;2.10;1.65;;;26.40;59.20;;;;;;5051297;28;20378;-73
2022/08/04 12:54:04;;;;;;;3.88;2.10;;;26.40;59.20;;;;;;5048220;28;20049;-74
2022/08/04 12:56:31;;;;;;;4.53;2.10;;;26.40;59.30;;;;;;5052356;28;20047;-74
2022/08/04 12:59:01;;;;;;;3.08;1.75;;;26.40;59.30;;;;;;5051808;28;20056;-73
2022/08/04 13:01:28;;;;;;;4.05;2.05;;;26.30;59.20;;;;;;5050371;28;20048;-73
2022/08/04 13:03:57;;;;;;;2.55;1.80;;;26.30;59.20;;;;;;5051843;28;20064;-73
2022/08/04 13:06:26;;;;;;;4.28;1.73;;;25.40;61.70;;;;;;5045868;28;20141;-74
2022/08/04 13:08:53;;;;;;;3.33;1.77;;;26.30;59.30;;;;;;5049640;28;20045;-74
2022/08/04 13:11:20;;;;;;;2.30;1.80;;;26.20;62.00;;;;;;5050148;28;20052;-75
2022/08/04 13:13:47;;;;;;;3.30;1.75;;;26.30;59.40;;;;;;5051791;28;20136;-74
2022/08/04 13:16:13;;;;;;;4.57;2.00;;;26.30;63.20;;;;;;5050652;28;20055;-74
2022/08/04 13:18:45;;;;;;;3.00;1.70;;;26.20;59.30;;;;;;5050514;28;20141;-73